sensor_id;sensor_type;location;lat;lon;timestamp;P1;durP1;ratioP1;P2;durP2;ratioP2
72408;SDS011;60402;48.082;11.628;2023-05-28T00:02:32;8.00;;;4.43;;
72408;SDS011;60402;48.082;11.628;2023-05-28T00:05:19;9.43;;;3.83;;
72408;SDS011;60402;48.082;11.628;2023-05-28T00:08:04;10.02;;;3.95;;
72408;SDS011;60402;48.082;11.628;2023-05-28T00:10:50;9.75;;;3.72;;
72408;SDS011;60402;48.082;11.628;2023-05-28T00:13:37;10.15;;;3.75;;
72408;SDS011;60402;48.082;11.628;2023-05-28T00:16:22;9.95;;;3.35;;
72408;SDS011;60402;48.082;11.628;2023-05-28T00:19:08;9.93;;;3.90;;
72408;SDS011;60402;48.082;11.628;2023-05-28T00:21:54;8.77;;;3.83;;
72408;SDS011;60402;48.082;11.628;2023-05-28T00:24:40;7.72;;;3.38;;
72408;SDS011;60402;48.082;11.628;2023-05-28T00:27:26;6.97;;;3.55;;
72408;SDS011;60402;48.082;11.628;2023-05-28T00:30:11;8.18;;;3.25;;
72408;SDS011;60402;48.082;11.628;2023-05-28T00:32:57;9.45;;;3.40;;
72408;SDS011;60402;48.082;11.628;2023-05-28T00:35:43;8.85;;;3.17;;
72408;SDS011;60402;48.082;11.628;2023-05-28T00:38:28;7.40;;;3.20;;
72408;SDS011;60402;48.082;11.628;2023-05-28T00:41:18;9.68;;;3.50;;
72408;SDS011;60402;48.082;11.628;2023-05-28T00:44:04;7.95;;;3.20;;
72408;SDS011;60402;48.082;11.628;2023-05-28T00:46:51;11.05;;;3.90;;
72408;SDS011;60402;48.082;11.628;2023-05-28T00:49:36;8.63;;;3.92;;
72408;SDS011;60402;48.082;11.628;2023-05-28T00:52:22;7.75;;;3.33;;
72408;SDS011;60402;48.082;11.628;2023-05-28T00:55:12;8.57;;;3.45;;
72408;SDS011;60402;48.082;11.628;2023-05-28T00:57:59;8.10;;;3.63;;
72408;SDS011;60402;48.082;11.628;2023-05-28T01:00:50;7.55;;;3.22;;
72408;SDS011;60402;48.082;11.628;2023-05-28T01:03:36;9.07;;;3.42;;
72408;SDS011;60402;48.082;11.628;2023-05-28T01:06:25;9.63;;;3.38;;
72408;SDS011;60402;48.082;11.628;2023-05-28T01:09:14;10.38;;;3.17;;
72408;SDS011;60402;48.082;11.628;2023-05-28T01:12:00;8.23;;;3.60;;
72408;SDS011;60402;48.082;11.628;2023-05-28T01:14:47;7.30;;;3.28;;
72408;SDS011;60402;48.082;11.628;2023-05-28T01:17:33;9.02;;;3.58;;
72408;SDS011;60402;48.082;11.628;2023-05-28T01:20:20;8.40;;;3.22;;
72408;SDS011;60402;48.082;11.628;2023-05-28T01:23:06;9.43;;;3.95;;
72408;SDS011;60402;48.082;11.628;2023-05-28T01:25:56;8.68;;;3.45;;
72408;SDS011;60402;48.082;11.628;2023-05-28T01:28:47;8.65;;;3.25;;
72408;SDS011;60402;48.082;11.628;2023-05-28T01:31:34;7.97;;;3.28;;
72408;SDS011;60402;48.082;11.628;2023-05-28T01:34:19;7.82;;;3.25;;
72408;SDS011;60402;48.082;11.628;2023-05-28T01:37:06;9.55;;;3.28;;
72408;SDS011;60402;48.082;11.628;2023-05-28T01:39:54;7.70;;;3.60;;
72408;SDS011;60402;48.082;11.628;2023-05-28T01:42:42;8.65;;;3.42;;
72408;SDS011;60402;48.082;11.628;2023-05-28T01:45:30;10.95;;;3.60;;
72408;SDS011;60402;48.082;11.628;2023-05-28T01:48:16;7.00;;;2.72;;
72408;SDS011;60402;48.082;11.628;2023-05-28T01:51:02;8.98;;;3.70;;
72408;SDS011;60402;48.082;11.628;2023-05-28T01:53:48;9.43;;;3.40;;
72408;SDS011;60402;48.082;11.628;2023-05-28T01:56:34;7.18;;;3.30;;
72408;SDS011;60402;48.082;11.628;2023-05-28T01:59:19;7.88;;;3.70;;
72408;SDS011;60402;48.082;11.628;2023-05-28T02:02:05;8.20;;;3.38;;
72408;SDS011;60402;48.082;11.628;2023-05-28T02:04:52;8.20;;;3.67;;
72408;SDS011;60402;48.082;11.628;2023-05-28T02:07:38;8.45;;;3.10;;
72408;SDS011;60402;48.082;11.628;2023-05-28T02:10:24;7.53;;;3.30;;
72408;SDS011;60402;48.082;11.628;2023-05-28T02:13:09;8.38;;;3.22;;
72408;SDS011;60402;48.082;11.628;2023-05-28T02:15:55;6.88;;;3.28;;
72408;SDS011;60402;48.082;11.628;2023-05-28T02:18:41;7.50;;;2.90;;
72408;SDS011;60402;48.082;11.628;2023-05-28T02:21:26;8.25;;;3.35;;
72408;SDS011;60402;48.082;11.628;2023-05-28T02:24:13;6.18;;;2.97;;
72408;SDS011;60402;48.082;11.628;2023-05-28T02:26:59;9.88;;;3.47;;
72408;SDS011;60402;48.082;11.628;2023-05-28T02:29:45;9.02;;;2.80;;
72408;SDS011;60402;48.082;11.628;2023-05-28T02:32:32;7.78;;;3.47;;
72408;SDS011;60402;48.082;11.628;2023-05-28T02:35:17;6.43;;;2.92;;
72408;SDS011;60402;48.082;11.628;2023-05-28T02:38:05;8.35;;;3.45;;
72408;SDS011;60402;48.082;11.628;2023-05-28T02:40:51;7.75;;;3.15;;
72408;SDS011;60402;48.082;11.628;2023-05-28T02:43:36;10.65;;;3.17;;
72408;SDS011;60402;48.082;11.628;2023-05-28T02:46:22;8.55;;;3.63;;
72408;SDS011;60402;48.082;11.628;2023-05-28T02:49:08;6.90;;;2.75;;
72408;SDS011;60402;48.082;11.628;2023-05-28T02:51:54;6.93;;;3.08;;
72408;SDS011;60402;48.082;11.628;2023-05-28T02:54:39;8.32;;;3.03;;
72408;SDS011;60402;48.082;11.628;2023-05-28T02:57:25;8.02;;;3.10;;
72408;SDS011;60402;48.082;11.628;2023-05-28T03:00:11;8.05;;;3.50;;
72408;SDS011;60402;48.082;11.628;2023-05-28T03:02:57;8.88;;;3.28;;
72408;SDS011;60402;48.082;11.628;2023-05-28T03:05:43;8.98;;;3.63;;
72408;SDS011;60402;48.082;11.628;2023-05-28T03:08:29;7.22;;;3.10;;
72408;SDS011;60402;48.082;11.628;2023-05-28T03:11:14;7.47;;;3.30;;
72408;SDS011;60402;48.082;11.628;2023-05-28T03:14:00;7.28;;;3.00;;
72408;SDS011;60402;48.082;11.628;2023-05-28T03:16:46;6.80;;;3.13;;
72408;SDS011;60402;48.082;11.628;2023-05-28T03:19:31;8.00;;;3.60;;
72408;SDS011;60402;48.082;11.628;2023-05-28T03:22:19;8.40;;;3.45;;
72408;SDS011;60402;48.082;11.628;2023-05-28T03:25:05;7.80;;;3.28;;
72408;SDS011;60402;48.082;11.628;2023-05-28T03:27:54;8.32;;;3.17;;
72408;SDS011;60402;48.082;11.628;2023-05-28T03:30:39;9.13;;;3.45;;
72408;SDS011;60402;48.082;11.628;2023-05-28T03:33:25;7.53;;;3.30;;
72408;SDS011;60402;48.082;11.628;2023-05-28T03:36:11;9.52;;;3.35;;
72408;SDS011;60402;48.082;11.628;2023-05-28T03:38:56;9.40;;;3.58;;
72408;SDS011;60402;48.082;11.628;2023-05-28T03:41:42;6.78;;;3.03;;
72408;SDS011;60402;48.082;11.628;2023-05-28T03:44:29;8.05;;;3.40;;
72408;SDS011;60402;48.082;11.628;2023-05-28T03:47:15;7.72;;;3.65;;
72408;SDS011;60402;48.082;11.628;2023-05-28T03:50:00;7.55;;;3.10;;
72408;SDS011;60402;48.082;11.628;2023-05-28T03:52:46;7.72;;;3.30;;
72408;SDS011;60402;48.082;11.628;2023-05-28T03:55:32;6.57;;;3.25;;
72408;SDS011;60402;48.082;11.628;2023-05-28T03:58:18;7.28;;;3.47;;
72408;SDS011;60402;48.082;11.628;2023-05-28T04:01:04;10.05;;;3.00;;
72408;SDS011;60402;48.082;11.628;2023-05-28T04:03:50;6.07;;;2.90;;
72408;SDS011;60402;48.082;11.628;2023-05-28T04:06:35;7.32;;;3.33;;
72408;SDS011;60402;48.082;11.628;2023-05-28T04:09:21;6.65;;;2.95;;
72408;SDS011;60402;48.082;11.628;2023-05-28T04:12:07;7.30;;;2.72;;
72408;SDS011;60402;48.082;11.628;2023-05-28T04:14:53;7.18;;;3.28;;
72408;SDS011;60402;48.082;11.628;2023-05-28T04:17:38;7.07;;;2.85;;
72408;SDS011;60402;48.082;11.628;2023-05-28T04:20:24;6.35;;;2.80;;
72408;SDS011;60402;48.082;11.628;2023-05-28T04:23:09;7.85;;;3.25;;
72408;SDS011;60402;48.082;11.628;2023-05-28T04:25:55;8.02;;;3.30;;
72408;SDS011;60402;48.082;11.628;2023-05-28T04:28:41;7.57;;;3.20;;
72408;SDS011;60402;48.082;11.628;2023-05-28T04:31:27;7.18;;;3.30;;
72408;SDS011;60402;48.082;11.628;2023-05-28T04:34:12;6.93;;;3.10;;
72408;SDS011;60402;48.082;11.628;2023-05-28T04:37:01;7.75;;;4.05;;
72408;SDS011;60402;48.082;11.628;2023-05-28T04:39:47;6.70;;;3.00;;
72408;SDS011;60402;48.082;11.628;2023-05-28T04:42:33;7.13;;;3.40;;
72408;SDS011;60402;48.082;11.628;2023-05-28T04:45:19;5.88;;;2.65;;
72408;SDS011;60402;48.082;11.628;2023-05-28T04:48:05;8.65;;;3.50;;
72408;SDS011;60402;48.082;11.628;2023-05-28T04:50:52;8.50;;;3.30;;
72408;SDS011;60402;48.082;11.628;2023-05-28T04:53:38;9.45;;;3.72;;
72408;SDS011;60402;48.082;11.628;2023-05-28T04:56:23;8.05;;;3.50;;
72408;SDS011;60402;48.082;11.628;2023-05-28T04:59:09;7.93;;;3.60;;
72408;SDS011;60402;48.082;11.628;2023-05-28T05:01:55;7.35;;;3.40;;
72408;SDS011;60402;48.082;11.628;2023-05-28T05:04:40;10.85;;;3.58;;
72408;SDS011;60402;48.082;11.628;2023-05-28T05:07:26;9.25;;;3.70;;
72408;SDS011;60402;48.082;11.628;2023-05-28T05:10:12;8.88;;;3.63;;
72408;SDS011;60402;48.082;11.628;2023-05-28T05:12:58;10.85;;;3.80;;
72408;SDS011;60402;48.082;11.628;2023-05-28T05:15:45;8.55;;;3.80;;
72408;SDS011;60402;48.082;11.628;2023-05-28T05:18:30;9.13;;;3.83;;
72408;SDS011;60402;48.082;11.628;2023-05-28T05:21:16;9.60;;;3.83;;
72408;SDS011;60402;48.082;11.628;2023-05-28T05:24:02;9.70;;;4.30;;
72408;SDS011;60402;48.082;11.628;2023-05-28T05:26:48;9.77;;;3.97;;
72408;SDS011;60402;48.082;11.628;2023-05-28T05:29:34;10.07;;;3.00;;
72408;SDS011;60402;48.082;11.628;2023-05-28T05:32:19;10.70;;;3.92;;
72408;SDS011;60402;48.082;11.628;2023-05-28T05:35:05;9.30;;;3.67;;
72408;SDS011;60402;48.082;11.628;2023-05-28T05:37:51;8.40;;;3.40;;
72408;SDS011;60402;48.082;11.628;2023-05-28T05:40:37;11.15;;;3.78;;
72408;SDS011;60402;48.082;11.628;2023-05-28T05:43:23;10.10;;;3.78;;
72408;SDS011;60402;48.082;11.628;2023-05-28T05:46:08;7.47;;;3.40;;
72408;SDS011;60402;48.082;11.628;2023-05-28T05:48:54;9.10;;;3.67;;
72408;SDS011;60402;48.082;11.628;2023-05-28T05:51:40;8.25;;;3.50;;
72408;SDS011;60402;48.082;11.628;2023-05-28T05:54:25;7.57;;;3.22;;
72408;SDS011;60402;48.082;11.628;2023-05-28T05:57:11;11.88;;;3.25;;
72408;SDS011;60402;48.082;11.628;2023-05-28T05:59:56;7.80;;;2.67;;
72408;SDS011;60402;48.082;11.628;2023-05-28T06:02:42;8.48;;;3.00;;
72408;SDS011;60402;48.082;11.628;2023-05-28T06:05:28;7.57;;;3.03;;
72408;SDS011;60402;48.082;11.628;2023-05-28T06:08:13;8.68;;;2.95;;
72408;SDS011;60402;48.082;11.628;2023-05-28T06:10:59;9.07;;;2.97;;
72408;SDS011;60402;48.082;11.628;2023-05-28T06:13:45;9.85;;;2.90;;
72408;SDS011;60402;48.082;11.628;2023-05-28T06:16:31;9.80;;;2.95;;
72408;SDS011;60402;48.082;11.628;2023-05-28T06:19:16;8.90;;;3.15;;
72408;SDS011;60402;48.082;11.628;2023-05-28T06:22:02;7.50;;;2.70;;
72408;SDS011;60402;48.082;11.628;2023-05-28T06:24:48;10.27;;;3.15;;
72408;SDS011;60402;48.082;11.628;2023-05-28T06:27:35;8.85;;;3.25;;
72408;SDS011;60402;48.082;11.628;2023-05-28T06:30:21;12.00;;;2.97;;
72408;SDS011;60402;48.082;11.628;2023-05-28T06:33:07;7.90;;;3.03;;
72408;SDS011;60402;48.082;11.628;2023-05-28T06:35:54;7.97;;;2.92;;
72408;SDS011;60402;48.082;11.628;2023-05-28T06:38:40;10.10;;;3.08;;
72408;SDS011;60402;48.082;11.628;2023-05-28T06:41:25;9.35;;;3.40;;
72408;SDS011;60402;48.082;11.628;2023-05-28T06:44:11;10.77;;;3.13;;
72408;SDS011;60402;48.082;11.628;2023-05-28T06:46:57;10.65;;;3.28;;
72408;SDS011;60402;48.082;11.628;2023-05-28T06:49:42;9.40;;;3.50;;
72408;SDS011;60402;48.082;11.628;2023-05-28T06:52:28;10.18;;;2.78;;
72408;SDS011;60402;48.082;11.628;2023-05-28T06:55:14;9.82;;;2.95;;
72408;SDS011;60402;48.082;11.628;2023-05-28T06:58:00;10.05;;;2.80;;
72408;SDS011;60402;48.082;11.628;2023-05-28T07:00:45;10.45;;;3.40;;
72408;SDS011;60402;48.082;11.628;2023-05-28T07:03:31;10.05;;;2.97;;
72408;SDS011;60402;48.082;11.628;2023-05-28T07:06:17;5.75;;;2.30;;
72408;SDS011;60402;48.082;11.628;2023-05-28T07:09:02;7.95;;;2.75;;
72408;SDS011;60402;48.082;11.628;2023-05-28T07:11:48;9.63;;;2.67;;
72408;SDS011;60402;48.082;11.628;2023-05-28T07:14:34;6.72;;;2.33;;
72408;SDS011;60402;48.082;11.628;2023-05-28T07:17:19;9.18;;;2.70;;
72408;SDS011;60402;48.082;11.628;2023-05-28T07:20:06;10.20;;;2.80;;
72408;SDS011;60402;48.082;11.628;2023-05-28T07:22:52;7.45;;;2.63;;
72408;SDS011;60402;48.082;11.628;2023-05-28T07:25:38;8.75;;;3.00;;
72408;SDS011;60402;48.082;11.628;2023-05-28T07:28:24;9.57;;;2.63;;
72408;SDS011;60402;48.082;11.628;2023-05-28T07:31:10;8.35;;;2.55;;
72408;SDS011;60402;48.082;11.628;2023-05-28T07:33:55;6.32;;;2.20;;
72408;SDS011;60402;48.082;11.628;2023-05-28T07:36:41;8.82;;;3.65;;
72408;SDS011;60402;48.082;11.628;2023-05-28T07:39:27;9.85;;;2.90;;
72408;SDS011;60402;48.082;11.628;2023-05-28T07:42:13;6.88;;;2.33;;
72408;SDS011;60402;48.082;11.628;2023-05-28T07:44:59;8.40;;;2.70;;
72408;SDS011;60402;48.082;11.628;2023-05-28T07:47:44;6.25;;;2.30;;
72408;SDS011;60402;48.082;11.628;2023-05-28T07:50:30;6.30;;;2.38;;
72408;SDS011;60402;48.082;11.628;2023-05-28T07:53:16;9.55;;;3.00;;
72408;SDS011;60402;48.082;11.628;2023-05-28T07:56:02;9.70;;;2.65;;
72408;SDS011;60402;48.082;11.628;2023-05-28T07:58:48;11.00;;;2.63;;
72408;SDS011;60402;48.082;11.628;2023-05-28T08:01:33;6.82;;;2.85;;
72408;SDS011;60402;48.082;11.628;2023-05-28T08:04:19;7.78;;;2.42;;
72408;SDS011;60402;48.082;11.628;2023-05-28T08:07:05;7.45;;;2.58;;
72408;SDS011;60402;48.082;11.628;2023-05-28T08:09:51;8.07;;;2.15;;
72408;SDS011;60402;48.082;11.628;2023-05-28T08:12:37;9.50;;;2.67;;
72408;SDS011;60402;48.082;11.628;2023-05-28T08:15:22;10.88;;;2.65;;
72408;SDS011;60402;48.082;11.628;2023-05-28T08:18:08;9.82;;;2.40;;
72408;SDS011;60402;48.082;11.628;2023-05-28T08:20:54;7.20;;;2.63;;
72408;SDS011;60402;48.082;11.628;2023-05-28T08:23:39;8.45;;;2.65;;
72408;SDS011;60402;48.082;11.628;2023-05-28T08:26:25;6.72;;;2.55;;
72408;SDS011;60402;48.082;11.628;2023-05-28T08:29:11;8.13;;;2.30;;
72408;SDS011;60402;48.082;11.628;2023-05-28T08:31:56;6.47;;;2.28;;
72408;SDS011;60402;48.082;11.628;2023-05-28T08:34:43;8.02;;;2.30;;
72408;SDS011;60402;48.082;11.628;2023-05-28T08:37:29;9.65;;;2.58;;
72408;SDS011;60402;48.082;11.628;2023-05-28T08:40:15;8.35;;;2.90;;
72408;SDS011;60402;48.082;11.628;2023-05-28T08:43:00;8.48;;;2.55;;
72408;SDS011;60402;48.082;11.628;2023-05-28T08:45:46;7.15;;;2.50;;
72408;SDS011;60402;48.082;11.628;2023-05-28T08:48:33;9.15;;;2.70;;
72408;SDS011;60402;48.082;11.628;2023-05-28T08:54:08;7.25;;;2.35;;
72408;SDS011;60402;48.082;11.628;2023-05-28T08:56:54;6.80;;;2.28;;
72408;SDS011;60402;48.082;11.628;2023-05-28T08:59:40;7.57;;;2.40;;
72408;SDS011;60402;48.082;11.628;2023-05-28T09:02:26;7.88;;;2.13;;
72408;SDS011;60402;48.082;11.628;2023-05-28T09:05:12;8.50;;;1.95;;
72408;SDS011;60402;48.082;11.628;2023-05-28T09:07:58;7.07;;;2.75;;
72408;SDS011;60402;48.082;11.628;2023-05-28T09:10:43;8.80;;;2.65;;
72408;SDS011;60402;48.082;11.628;2023-05-28T09:13:29;8.00;;;2.22;;
72408;SDS011;60402;48.082;11.628;2023-05-28T09:16:21;9.63;;;2.72;;
72408;SDS011;60402;48.082;11.628;2023-05-28T09:19:08;6.18;;;2.33;;
72408;SDS011;60402;48.082;11.628;2023-05-28T09:21:54;9.43;;;2.50;;
72408;SDS011;60402;48.082;11.628;2023-05-28T09:24:43;7.13;;;2.10;;
72408;SDS011;60402;48.082;11.628;2023-05-28T09:27:34;6.35;;;2.60;;
72408;SDS011;60402;48.082;11.628;2023-05-28T09:30:20;6.70;;;2.50;;
72408;SDS011;60402;48.082;11.628;2023-05-28T09:33:08;7.88;;;2.42;;
72408;SDS011;60402;48.082;11.628;2023-05-28T09:35:58;9.30;;;2.60;;
72408;SDS011;60402;48.082;11.628;2023-05-28T09:38:45;8.30;;;2.88;;
72408;SDS011;60402;48.082;11.628;2023-05-28T09:41:31;7.57;;;2.40;;
72408;SDS011;60402;48.082;11.628;2023-05-28T09:44:19;6.07;;;2.10;;
72408;SDS011;60402;48.082;11.628;2023-05-28T09:47:12;8.35;;;2.53;;
72408;SDS011;60402;48.082;11.628;2023-05-28T09:50:04;8.13;;;2.58;;
72408;SDS011;60402;48.082;11.628;2023-05-28T09:52:51;7.95;;;2.30;;
72408;SDS011;60402;48.082;11.628;2023-05-28T09:55:40;7.88;;;2.40;;
72408;SDS011;60402;48.082;11.628;2023-05-28T09:58:31;6.13;;;2.35;;
72408;SDS011;60402;48.082;11.628;2023-05-28T10:01:19;6.55;;;2.35;;
72408;SDS011;60402;48.082;11.628;2023-05-28T10:04:10;6.68;;;2.45;;
72408;SDS011;60402;48.082;11.628;2023-05-28T10:06:59;6.82;;;2.10;;
72408;SDS011;60402;48.082;11.628;2023-05-28T10:09:46;6.95;;;2.20;;
72408;SDS011;60402;48.082;11.628;2023-05-28T10:12:32;8.60;;;2.30;;
72408;SDS011;60402;48.082;11.628;2023-05-28T10:15:19;7.05;;;2.50;;
72408;SDS011;60402;48.082;11.628;2023-05-28T10:18:05;7.72;;;2.28;;
72408;SDS011;60402;48.082;11.628;2023-05-28T10:20:52;7.60;;;2.38;;
72408;SDS011;60402;48.082;11.628;2023-05-28T10:23:37;9.18;;;2.50;;
72408;SDS011;60402;48.082;11.628;2023-05-28T10:26:24;9.50;;;2.67;;
72408;SDS011;60402;48.082;11.628;2023-05-28T10:29:11;7.43;;;3.03;;
72408;SDS011;60402;48.082;11.628;2023-05-28T10:31:59;8.85;;;2.83;;
72408;SDS011;60402;48.082;11.628;2023-05-28T10:34:48;9.07;;;2.55;;
72408;SDS011;60402;48.082;11.628;2023-05-28T10:37:34;9.48;;;2.83;;
72408;SDS011;60402;48.082;11.628;2023-05-28T10:40:23;9.55;;;2.40;;
72408;SDS011;60402;48.082;11.628;2023-05-28T10:49:12;7.35;;;2.45;;
72408;SDS011;60402;48.082;11.628;2023-05-28T10:52:02;8.40;;;2.50;;
72408;SDS011;60402;48.082;11.628;2023-05-28T10:54:48;7.07;;;2.15;;
72408;SDS011;60402;48.082;11.628;2023-05-28T11:00:30;9.18;;;2.80;;
72408;SDS011;60402;48.082;11.628;2023-05-28T11:03:15;7.57;;;2.65;;
72408;SDS011;60402;48.082;11.628;2023-05-28T11:06:04;5.93;;;2.10;;
72408;SDS011;60402;48.082;11.628;2023-05-28T11:08:51;8.73;;;3.08;;
72408;SDS011;60402;48.082;11.628;2023-05-28T11:11:37;7.88;;;2.35;;
72408;SDS011;60402;48.082;11.628;2023-05-28T11:14:23;7.30;;;2.53;;
72408;SDS011;60402;48.082;11.628;2023-05-28T11:17:12;8.90;;;2.72;;
72408;SDS011;60402;48.082;11.628;2023-05-28T11:19:58;7.20;;;2.75;;
72408;SDS011;60402;48.082;11.628;2023-05-28T11:22:43;8.15;;;2.40;;
72408;SDS011;60402;48.082;11.628;2023-05-28T11:25:29;9.68;;;3.78;;
72408;SDS011;60402;48.082;11.628;2023-05-28T11:28:17;8.95;;;2.15;;
72408;SDS011;60402;48.082;11.628;2023-05-28T11:31:03;9.27;;;2.00;;
72408;SDS011;60402;48.082;11.628;2023-05-28T11:33:49;8.32;;;2.85;;
72408;SDS011;60402;48.082;11.628;2023-05-28T11:36:37;6.95;;;2.28;;
72408;SDS011;60402;48.082;11.628;2023-05-28T11:39:27;7.50;;;2.80;;
72408;SDS011;60402;48.082;11.628;2023-05-28T11:42:12;5.32;;;2.22;;
72408;SDS011;60402;48.082;11.628;2023-05-28T11:44:58;5.90;;;2.00;;
72408;SDS011;60402;48.082;11.628;2023-05-28T11:47:44;9.50;;;3.53;;
72408;SDS011;60402;48.082;11.628;2023-05-28T11:50:31;6.97;;;2.13;;
72408;SDS011;60402;48.082;11.628;2023-05-28T11:53:18;7.00;;;2.42;;
72408;SDS011;60402;48.082;11.628;2023-05-28T11:56:04;5.32;;;2.08;;
72408;SDS011;60402;48.082;11.628;2023-05-28T11:58:51;7.95;;;2.78;;
72408;SDS011;60402;48.082;11.628;2023-05-28T12:01:38;6.72;;;2.15;;
72408;SDS011;60402;48.082;11.628;2023-05-28T12:04:24;8.30;;;2.50;;
72408;SDS011;60402;48.082;11.628;2023-05-28T12:07:11;7.22;;;2.35;;
72408;SDS011;60402;48.082;11.628;2023-05-28T12:12:54;6.78;;;2.53;;
72408;SDS011;60402;48.082;11.628;2023-05-28T12:15:41;8.45;;;2.42;;
72408;SDS011;60402;48.082;11.628;2023-05-28T12:18:27;6.30;;;2.17;;
72408;SDS011;60402;48.082;11.628;2023-05-28T12:21:13;8.48;;;2.55;;
72408;SDS011;60402;48.082;11.628;2023-05-28T12:24:09;6.97;;;2.00;;
72408;SDS011;60402;48.082;11.628;2023-05-28T12:26:57;7.55;;;2.17;;
72408;SDS011;60402;48.082;11.628;2023-05-28T12:29:43;5.95;;;2.08;;
72408;SDS011;60402;48.082;11.628;2023-05-28T12:32:28;6.50;;;2.30;;
72408;SDS011;60402;48.082;11.628;2023-05-28T12:35:14;7.50;;;2.40;;
72408;SDS011;60402;48.082;11.628;2023-05-28T12:38:00;10.48;;;3.08;;
72408;SDS011;60402;48.082;11.628;2023-05-28T12:40:46;7.38;;;2.20;;
72408;SDS011;60402;48.082;11.628;2023-05-28T12:43:31;8.43;;;2.30;;
72408;SDS011;60402;48.082;11.628;2023-05-28T12:46:17;8.15;;;2.40;;
72408;SDS011;60402;48.082;11.628;2023-05-28T12:49:03;5.75;;;2.10;;
72408;SDS011;60402;48.082;11.628;2023-05-28T12:51:48;8.77;;;2.83;;
72408;SDS011;60402;48.082;11.628;2023-05-28T12:54:34;6.88;;;2.67;;
72408;SDS011;60402;48.082;11.628;2023-05-28T12:57:20;8.48;;;2.60;;
72408;SDS011;60402;48.082;11.628;2023-05-28T13:00:06;8.07;;;2.08;;
72408;SDS011;60402;48.082;11.628;2023-05-28T13:02:55;5.75;;;2.25;;
72408;SDS011;60402;48.082;11.628;2023-05-28T13:05:41;6.75;;;2.10;;
72408;SDS011;60402;48.082;11.628;2023-05-28T13:08:27;5.80;;;1.90;;
72408;SDS011;60402;48.082;11.628;2023-05-28T13:11:12;6.70;;;2.33;;
72408;SDS011;60402;48.082;11.628;2023-05-28T13:13:58;5.95;;;2.10;;
72408;SDS011;60402;48.082;11.628;2023-05-28T13:16:44;5.10;;;2.35;;
72408;SDS011;60402;48.082;11.628;2023-05-28T13:19:29;7.72;;;2.28;;
72408;SDS011;60402;48.082;11.628;2023-05-28T13:22:15;7.60;;;2.10;;
72408;SDS011;60402;48.082;11.628;2023-05-28T13:25:01;5.10;;;2.00;;
72408;SDS011;60402;48.082;11.628;2023-05-28T13:27:48;7.20;;;2.70;;
72408;SDS011;60402;48.082;11.628;2023-05-28T13:30:35;6.90;;;2.38;;
72408;SDS011;60402;48.082;11.628;2023-05-28T13:33:20;5.18;;;1.90;;
72408;SDS011;60402;48.082;11.628;2023-05-28T13:36:06;8.32;;;2.30;;
72408;SDS011;60402;48.082;11.628;2023-05-28T13:38:52;6.82;;;2.08;;
72408;SDS011;60402;48.082;11.628;2023-05-28T13:41:39;5.03;;;2.00;;
72408;SDS011;60402;48.082;11.628;2023-05-28T13:44:25;5.47;;;2.00;;
72408;SDS011;60402;48.082;11.628;2023-05-28T13:47:11;6.95;;;2.22;;
72408;SDS011;60402;48.082;11.628;2023-05-28T13:49:56;6.63;;;2.33;;
72408;SDS011;60402;48.082;11.628;2023-05-28T13:52:43;5.15;;;1.90;;
72408;SDS011;60402;48.082;11.628;2023-05-28T13:55:30;7.80;;;2.38;;
72408;SDS011;60402;48.082;11.628;2023-05-28T13:58:16;6.88;;;2.10;;
72408;SDS011;60402;48.082;11.628;2023-05-28T14:01:01;7.50;;;2.13;;
72408;SDS011;60402;48.082;11.628;2023-05-28T14:03:47;6.20;;;2.15;;
72408;SDS011;60402;48.082;11.628;2023-05-28T14:06:32;7.80;;;2.42;;
72408;SDS011;60402;48.082;11.628;2023-05-28T14:09:18;9.10;;;2.72;;
72408;SDS011;60402;48.082;11.628;2023-05-28T14:12:04;6.10;;;2.15;;
72408;SDS011;60402;48.082;11.628;2023-05-28T14:14:50;6.93;;;2.25;;
72408;SDS011;60402;48.082;11.628;2023-05-28T14:17:36;7.00;;;2.50;;
72408;SDS011;60402;48.082;11.628;2023-05-28T14:20:22;7.07;;;2.28;;
72408;SDS011;60402;48.082;11.628;2023-05-28T14:23:07;7.60;;;2.55;;
72408;SDS011;60402;48.082;11.628;2023-05-28T14:25:53;6.45;;;2.63;;
72408;SDS011;60402;48.082;11.628;2023-05-28T14:28:39;7.03;;;2.40;;
72408;SDS011;60402;48.082;11.628;2023-05-28T14:31:24;8.57;;;2.55;;
72408;SDS011;60402;48.082;11.628;2023-05-28T14:34:10;6.07;;;2.30;;
72408;SDS011;60402;48.082;11.628;2023-05-28T14:36:56;6.82;;;2.38;;
72408;SDS011;60402;48.082;11.628;2023-05-28T14:39:41;7.93;;;2.38;;
72408;SDS011;60402;48.082;11.628;2023-05-28T14:42:27;7.65;;;2.60;;
72408;SDS011;60402;48.082;11.628;2023-05-28T14:45:13;8.05;;;2.40;;
72408;SDS011;60402;48.082;11.628;2023-05-28T14:47:58;8.10;;;2.80;;
72408;SDS011;60402;48.082;11.628;2023-05-28T14:50:46;8.32;;;2.95;;
72408;SDS011;60402;48.082;11.628;2023-05-28T14:53:31;6.45;;;2.53;;
72408;SDS011;60402;48.082;11.628;2023-05-28T14:56:17;7.10;;;2.70;;
72408;SDS011;60402;48.082;11.628;2023-05-28T14:59:02;7.65;;;2.80;;
72408;SDS011;60402;48.082;11.628;2023-05-28T15:01:48;7.97;;;3.10;;
72408;SDS011;60402;48.082;11.628;2023-05-28T15:04:34;7.90;;;2.60;;
72408;SDS011;60402;48.082;11.628;2023-05-28T15:07:19;5.68;;;2.40;;
72408;SDS011;60402;48.082;11.628;2023-05-28T15:10:05;6.50;;;2.63;;
72408;SDS011;60402;48.082;11.628;2023-05-28T15:12:51;7.47;;;2.60;;
72408;SDS011;60402;48.082;11.628;2023-05-28T15:15:37;9.13;;;2.70;;
72408;SDS011;60402;48.082;11.628;2023-05-28T15:18:22;7.78;;;2.83;;
72408;SDS011;60402;48.082;11.628;2023-05-28T15:21:08;8.35;;;3.03;;
72408;SDS011;60402;48.082;11.628;2023-05-28T15:23:55;8.35;;;2.70;;
72408;SDS011;60402;48.082;11.628;2023-05-28T15:26:41;7.97;;;2.65;;
72408;SDS011;60402;48.082;11.628;2023-05-28T15:29:28;8.63;;;2.88;;
72408;SDS011;60402;48.082;11.628;2023-05-28T15:32:15;7.22;;;2.80;;
72408;SDS011;60402;48.082;11.628;2023-05-28T15:35:01;8.25;;;3.08;;
72408;SDS011;60402;48.082;11.628;2023-05-28T15:37:48;8.02;;;2.53;;
72408;SDS011;60402;48.082;11.628;2023-05-28T15:40:34;7.68;;;2.13;;
72408;SDS011;60402;48.082;11.628;2023-05-28T15:43:20;7.10;;;2.47;;
72408;SDS011;60402;48.082;11.628;2023-05-28T15:46:06;6.97;;;2.75;;
72408;SDS011;60402;48.082;11.628;2023-05-28T15:48:52;7.85;;;3.50;;
72408;SDS011;60402;48.082;11.628;2023-05-28T15:51:37;7.28;;;2.60;;
72408;SDS011;60402;48.082;11.628;2023-05-28T15:54:23;6.93;;;2.50;;
72408;SDS011;60402;48.082;11.628;2023-05-28T15:57:09;10.18;;;3.65;;
72408;SDS011;60402;48.082;11.628;2023-05-28T15:59:55;8.70;;;2.60;;
72408;SDS011;60402;48.082;11.628;2023-05-28T16:02:41;7.63;;;2.63;;
72408;SDS011;60402;48.082;11.628;2023-05-28T16:05:28;6.88;;;2.42;;
72408;SDS011;60402;48.082;11.628;2023-05-28T16:08:14;8.52;;;3.17;;
72408;SDS011;60402;48.082;11.628;2023-05-28T16:10:59;7.30;;;2.83;;
72408;SDS011;60402;48.082;11.628;2023-05-28T16:13:45;8.50;;;2.97;;
72408;SDS011;60402;48.082;11.628;2023-05-28T16:16:32;8.43;;;2.50;;
72408;SDS011;60402;48.082;11.628;2023-05-28T16:19:19;9.18;;;3.08;;
72408;SDS011;60402;48.082;11.628;2023-05-28T16:22:05;8.70;;;2.90;;
72408;SDS011;60402;48.082;11.628;2023-05-28T16:24:52;6.57;;;2.75;;
72408;SDS011;60402;48.082;11.628;2023-05-28T16:27:37;10.55;;;2.92;;
72408;SDS011;60402;48.082;11.628;2023-05-28T16:30:23;7.25;;;2.85;;
72408;SDS011;60402;48.082;11.628;2023-05-28T16:33:09;7.57;;;2.47;;
72408;SDS011;60402;48.082;11.628;2023-05-28T16:35:55;7.97;;;2.50;;
72408;SDS011;60402;48.082;11.628;2023-05-28T16:38:41;7.45;;;2.47;;
72408;SDS011;60402;48.082;11.628;2023-05-28T16:41:27;7.00;;;2.63;;